Terminal Aerodrome Forecast
Issued by NWS Melbourne, FL

Home | Current Version | Previous Version | Text Only | Print | Product List | Glossary On
Versions: 1 2 3 4 5 6 7 8 9 10 11 12 13 14 15
000
FTUS42 KMLB 191100
TAFVRB
TAF
KVRB 191138Z 1912/2012 00000KT P6SM FEW025 BKN250
     FM191300 07008KT P6SM VCSH FEW025 BKN050 BKN150
     FM191600 07009KT P6SM -SHRA SCT025 BKN040 OVC080
     FM200000 04005KT P6SM -SHRA BKN030=

USA.gov is the U.S. government's official web portal to all federal, state and local government web resources and services.